首页
METAR-TAF:

METAR-TAF

机场 :

拉雷多, 得克萨斯州, 美国

纬度: 27-33N, 经度: 099-28W, 海拔: 155米

当前天气观测

该预报发布于1小时和2分钟前的14:56 UTC
风速8节,风向东转东南
温度 30°C
湿度 70%
气压 1015 hPa
能見度: 16.1公里
少量云层高于1400英尺

METAR: KLRD 241456Z 12008KT 10SM FEW014 30/24 A2996 RMK AO2 SLP142 T03000244 53008

时间: 10:58 (15:58 UTC)

预报

该预报发布于4小时和38分钟前的11:20 UTC
预报有效从24日的 12点(UTC)到 25日的 12点(UTC)
风速节,风向
能見度: 10公里
天空无云
从 24日的 1400点(UTC)
风速4节,风向多变
能見度: 10公里
散云层高于3000英尺
附近有阵雨
从 24日的 2100点(UTC)
风速7节,风向东南
能見度: 10公里
散云层高于6000英尺
多云层高于25000英尺
附近有阵雨
几率 30%
从 24日的 21点(UTC)到 24日的 24点(UTC)
能見度: 6.4公里
多云层高于3000英尺, 积雨云.
雷暴, 小雨, 轻雾
从 25日的 0000点(UTC)
风速10节,风向东南
能見度: 10公里
少量云层高于5000英尺

TAF: KLRD 241120Z 2412/2512 00000KT P6SM SKC FM241400 VRB04KT P6SM VCSH SCT030 FM242100 13007KT P6SM VCSH SCT060 BKN250 PROB30 2421/2424 4SM -TSRA BR BKN030CB FM250000 13010KT P6SM FEW050

超过4000个机场的气象观测和天气预报(METAR&TAF报告)。

可查询的气象台以黄色和红色小点在地图上表示。

将鼠标移到小点上方,可查看气象台名称。

然后点击查看天气观测和预报。

如需切换地图:点击带黑十字的绿色按钮放大地图;点击带横线的绿色按钮缩小地图;或者点击绿色箭头查看邻近地区的地图。


METAR-TAF: